sensor_id;sensor_type;location;lat;lon;timestamp;P1;durP1;ratioP1;P2;durP2;ratioP2
20093;SDS011;10206;48.012;10.030;2023-11-21T00:00:18;6.07;;;1.60;;
20093;SDS011;10206;48.012;10.030;2023-11-21T00:02:45;3.60;;;1.63;;
20093;SDS011;10206;48.012;10.030;2023-11-21T00:05:12;5.90;;;1.50;;
20093;SDS011;10206;48.012;10.030;2023-11-21T00:07:42;6.97;;;1.47;;
20093;SDS011;10206;48.012;10.030;2023-11-21T00:10:08;3.90;;;1.50;;
20093;SDS011;10206;48.012;10.030;2023-11-21T00:12:35;8.87;;;1.70;;
20093;SDS011;10206;48.012;10.030;2023-11-21T00:15:02;5.87;;;1.97;;
20093;SDS011;10206;48.012;10.030;2023-11-21T00:17:34;7.37;;;2.20;;
20093;SDS011;10206;48.012;10.030;2023-11-21T00:20:00;4.93;;;1.67;;
20093;SDS011;10206;48.012;10.030;2023-11-21T00:22:27;7.73;;;1.67;;
20093;SDS011;10206;48.012;10.030;2023-11-21T00:24:53;10.40;;;2.00;;
20093;SDS011;10206;48.012;10.030;2023-11-21T00:27:19;5.27;;;1.73;;
20093;SDS011;10206;48.012;10.030;2023-11-21T00:29:45;5.33;;;1.90;;
20093;SDS011;10206;48.012;10.030;2023-11-21T00:32:11;4.97;;;1.63;;
20093;SDS011;10206;48.012;10.030;2023-11-21T00:34:37;8.83;;;1.90;;
20093;SDS011;10206;48.012;10.030;2023-11-21T00:37:03;6.87;;;1.67;;
20093;SDS011;10206;48.012;10.030;2023-11-21T00:39:30;11.63;;;1.70;;
20093;SDS011;10206;48.012;10.030;2023-11-21T00:41:57;6.53;;;1.97;;
20093;SDS011;10206;48.012;10.030;2023-11-21T00:44:23;8.63;;;2.17;;
20093;SDS011;10206;48.012;10.030;2023-11-21T00:46:50;6.67;;;1.77;;
20093;SDS011;10206;48.012;10.030;2023-11-21T00:49:16;6.77;;;1.80;;
20093;SDS011;10206;48.012;10.030;2023-11-21T00:51:42;6.97;;;1.87;;
20093;SDS011;10206;48.012;10.030;2023-11-21T00:54:08;6.97;;;1.80;;
20093;SDS011;10206;48.012;10.030;2023-11-21T00:56:34;10.37;;;1.80;;
20093;SDS011;10206;48.012;10.030;2023-11-21T00:59:00;5.37;;;1.53;;
20093;SDS011;10206;48.012;10.030;2023-11-21T01:01:26;7.53;;;1.83;;
20093;SDS011;10206;48.012;10.030;2023-11-21T01:03:53;10.00;;;1.80;;
20093;SDS011;10206;48.012;10.030;2023-11-21T01:06:19;4.37;;;1.97;;
20093;SDS011;10206;48.012;10.030;2023-11-21T01:08:45;6.67;;;1.73;;
20093;SDS011;10206;48.012;10.030;2023-11-21T01:11:11;7.57;;;1.93;;
20093;SDS011;10206;48.012;10.030;2023-11-21T01:13:38;4.93;;;1.80;;
20093;SDS011;10206;48.012;10.030;2023-11-21T01:16:05;6.93;;;2.10;;
20093;SDS011;10206;48.012;10.030;2023-11-21T01:18:32;9.23;;;1.93;;
20093;SDS011;10206;48.012;10.030;2023-11-21T01:21:00;9.00;;;1.73;;
20093;SDS011;10206;48.012;10.030;2023-11-21T01:23:26;9.13;;;2.07;;
20093;SDS011;10206;48.012;10.030;2023-11-21T01:25:52;10.03;;;2.03;;
20093;SDS011;10206;48.012;10.030;2023-11-21T01:28:20;6.13;;;1.67;;
20093;SDS011;10206;48.012;10.030;2023-11-21T01:30:47;6.00;;;1.77;;
20093;SDS011;10206;48.012;10.030;2023-11-21T01:33:13;6.80;;;1.80;;
20093;SDS011;10206;48.012;10.030;2023-11-21T01:35:40;3.37;;;1.63;;
20093;SDS011;10206;48.012;10.030;2023-11-21T01:38:07;6.00;;;1.60;;
20093;SDS011;10206;48.012;10.030;2023-11-21T01:40:34;4.87;;;1.40;;
20093;SDS011;10206;48.012;10.030;2023-11-21T01:43:00;5.77;;;1.90;;
20093;SDS011;10206;48.012;10.030;2023-11-21T01:45:29;5.70;;;1.73;;
20093;SDS011;10206;48.012;10.030;2023-11-21T01:47:59;7.27;;;1.60;;
20093;SDS011;10206;48.012;10.030;2023-11-21T01:50:26;5.73;;;1.60;;
20093;SDS011;10206;48.012;10.030;2023-11-21T01:52:53;4.00;;;1.53;;
20093;SDS011;10206;48.012;10.030;2023-11-21T01:55:19;5.77;;;1.63;;
20093;SDS011;10206;48.012;10.030;2023-11-21T01:57:46;4.50;;;2.27;;
20093;SDS011;10206;48.012;10.030;2023-11-21T02:00:12;6.17;;;1.67;;
20093;SDS011;10206;48.012;10.030;2023-11-21T02:02:42;4.97;;;2.10;;
20093;SDS011;10206;48.012;10.030;2023-11-21T02:05:10;5.43;;;1.77;;
20093;SDS011;10206;48.012;10.030;2023-11-21T02:07:37;3.20;;;1.57;;
20093;SDS011;10206;48.012;10.030;2023-11-21T02:10:04;3.47;;;1.63;;
20093;SDS011;10206;48.012;10.030;2023-11-21T02:12:34;4.63;;;1.50;;
20093;SDS011;10206;48.012;10.030;2023-11-21T02:15:04;2.73;;;1.50;;
20093;SDS011;10206;48.012;10.030;2023-11-21T02:17:40;9.30;;;1.70;;
20093;SDS011;10206;48.012;10.030;2023-11-21T02:20:08;7.80;;;1.90;;
20093;SDS011;10206;48.012;10.030;2023-11-21T02:22:40;3.23;;;1.73;;
20093;SDS011;10206;48.012;10.030;2023-11-21T02:25:07;5.93;;;1.63;;
20093;SDS011;10206;48.012;10.030;2023-11-21T02:27:33;4.83;;;1.70;;
20093;SDS011;10206;48.012;10.030;2023-11-21T02:29:59;5.70;;;1.97;;
20093;SDS011;10206;48.012;10.030;2023-11-21T02:32:26;9.47;;;2.97;;
20093;SDS011;10206;48.012;10.030;2023-11-21T02:34:52;9.27;;;2.03;;
20093;SDS011;10206;48.012;10.030;2023-11-21T02:37:25;4.97;;;2.30;;
20093;SDS011;10206;48.012;10.030;2023-11-21T02:39:52;3.77;;;1.83;;
20093;SDS011;10206;48.012;10.030;2023-11-21T02:42:18;7.03;;;2.00;;
20093;SDS011;10206;48.012;10.030;2023-11-21T02:44:44;7.70;;;2.20;;
20093;SDS011;10206;48.012;10.030;2023-11-21T02:47:10;7.03;;;1.80;;
20093;SDS011;10206;48.012;10.030;2023-11-21T02:49:36;4.20;;;1.60;;
20093;SDS011;10206;48.012;10.030;2023-11-21T02:52:02;7.97;;;1.90;;
20093;SDS011;10206;48.012;10.030;2023-11-21T02:54:29;7.27;;;1.80;;
20093;SDS011;10206;48.012;10.030;2023-11-21T02:56:55;9.77;;;1.90;;
20093;SDS011;10206;48.012;10.030;2023-11-21T02:59:21;7.23;;;1.83;;
20093;SDS011;10206;48.012;10.030;2023-11-21T03:01:47;2.43;;;1.47;;
20093;SDS011;10206;48.012;10.030;2023-11-21T03:04:14;6.63;;;1.60;;
20093;SDS011;10206;48.012;10.030;2023-11-21T03:06:43;6.33;;;1.83;;
20093;SDS011;10206;48.012;10.030;2023-11-21T03:09:10;4.23;;;1.50;;
20093;SDS011;10206;48.012;10.030;2023-11-21T03:11:39;4.07;;;1.90;;
20093;SDS011;10206;48.012;10.030;2023-11-21T03:14:05;7.37;;;1.80;;
20093;SDS011;10206;48.012;10.030;2023-11-21T03:16:32;4.07;;;1.63;;
20093;SDS011;10206;48.012;10.030;2023-11-21T03:18:58;5.43;;;1.70;;
20093;SDS011;10206;48.012;10.030;2023-11-21T03:21:24;7.17;;;1.60;;
20093;SDS011;10206;48.012;10.030;2023-11-21T03:23:51;4.27;;;1.50;;
20093;SDS011;10206;48.012;10.030;2023-11-21T03:26:18;4.07;;;1.53;;
20093;SDS011;10206;48.012;10.030;2023-11-21T03:28:44;6.20;;;1.50;;
20093;SDS011;10206;48.012;10.030;2023-11-21T03:31:11;6.17;;;1.80;;
20093;SDS011;10206;48.012;10.030;2023-11-21T03:33:37;6.03;;;1.70;;
20093;SDS011;10206;48.012;10.030;2023-11-21T03:36:03;5.00;;;1.63;;
20093;SDS011;10206;48.012;10.030;2023-11-21T03:38:29;5.00;;;1.40;;
20093;SDS011;10206;48.012;10.030;2023-11-21T03:40:55;6.13;;;1.57;;
20093;SDS011;10206;48.012;10.030;2023-11-21T03:43:22;5.20;;;1.87;;
20093;SDS011;10206;48.012;10.030;2023-11-21T03:45:49;4.23;;;1.60;;
20093;SDS011;10206;48.012;10.030;2023-11-21T03:48:15;6.43;;;1.63;;
20093;SDS011;10206;48.012;10.030;2023-11-21T03:50:41;1.83;;;1.30;;
20093;SDS011;10206;48.012;10.030;2023-11-21T03:53:07;2.77;;;1.30;;
20093;SDS011;10206;48.012;10.030;2023-11-21T03:55:33;4.03;;;1.20;;
20093;SDS011;10206;48.012;10.030;2023-11-21T03:57:59;4.60;;;1.70;;
20093;SDS011;10206;48.012;10.030;2023-11-21T04:00:26;3.47;;;1.27;;
20093;SDS011;10206;48.012;10.030;2023-11-21T04:02:53;5.90;;;1.60;;
20093;SDS011;10206;48.012;10.030;2023-11-21T04:05:19;8.03;;;1.77;;
20093;SDS011;10206;48.012;10.030;2023-11-21T04:07:49;3.43;;;1.30;;
20093;SDS011;10206;48.012;10.030;2023-11-21T04:10:16;2.70;;;1.30;;
20093;SDS011;10206;48.012;10.030;2023-11-21T04:12:42;2.30;;;1.30;;
20093;SDS011;10206;48.012;10.030;2023-11-21T04:15:08;3.53;;;1.10;;
20093;SDS011;10206;48.012;10.030;2023-11-21T04:17:35;4.67;;;1.10;;
20093;SDS011;10206;48.012;10.030;2023-11-21T04:20:02;2.67;;;1.13;;
20093;SDS011;10206;48.012;10.030;2023-11-21T04:22:33;2.40;;;1.30;;
20093;SDS011;10206;48.012;10.030;2023-11-21T04:25:07;2.27;;;1.50;;
20093;SDS011;10206;48.012;10.030;2023-11-21T04:27:36;3.03;;;1.17;;
20093;SDS011;10206;48.012;10.030;2023-11-21T04:30:03;5.20;;;1.10;;
20093;SDS011;10206;48.012;10.030;2023-11-21T04:32:30;3.23;;;1.07;;
20093;SDS011;10206;48.012;10.030;2023-11-21T04:34:56;2.37;;;0.90;;
20093;SDS011;10206;48.012;10.030;2023-11-21T04:37:22;2.90;;;1.20;;
20093;SDS011;10206;48.012;10.030;2023-11-21T04:39:49;3.60;;;1.37;;
20093;SDS011;10206;48.012;10.030;2023-11-21T04:42:15;1.50;;;1.10;;
20093;SDS011;10206;48.012;10.030;2023-11-21T04:44:41;4.37;;;1.60;;
20093;SDS011;10206;48.012;10.030;2023-11-21T04:47:09;4.23;;;1.40;;
20093;SDS011;10206;48.012;10.030;2023-11-21T04:49:35;3.47;;;1.20;;
20093;SDS011;10206;48.012;10.030;2023-11-21T04:52:01;2.77;;;1.10;;
20093;SDS011;10206;48.012;10.030;2023-11-21T04:54:28;1.57;;;0.90;;
20093;SDS011;10206;48.012;10.030;2023-11-21T04:56:55;2.60;;;0.93;;
20093;SDS011;10206;48.012;10.030;2023-11-21T04:59:21;8.40;;;5.80;;
20093;SDS011;10206;48.012;10.030;2023-11-21T05:01:52;3.10;;;1.20;;
20093;SDS011;10206;48.012;10.030;2023-11-21T05:04:19;1.80;;;1.00;;
20093;SDS011;10206;48.012;10.030;2023-11-21T05:06:47;3.77;;;1.37;;
20093;SDS011;10206;48.012;10.030;2023-11-21T05:09:13;1.70;;;1.37;;
20093;SDS011;10206;48.012;10.030;2023-11-21T05:11:40;3.40;;;1.30;;
20093;SDS011;10206;48.012;10.030;2023-11-21T05:14:06;3.63;;;2.13;;
20093;SDS011;10206;48.012;10.030;2023-11-21T05:16:33;3.70;;;1.37;;
20093;SDS011;10206;48.012;10.030;2023-11-21T05:19:00;4.77;;;1.53;;
20093;SDS011;10206;48.012;10.030;2023-11-21T05:21:27;1.80;;;1.17;;
20093;SDS011;10206;48.012;10.030;2023-11-21T05:23:55;2.50;;;1.20;;
20093;SDS011;10206;48.012;10.030;2023-11-21T05:26:21;3.33;;;1.10;;
20093;SDS011;10206;48.012;10.030;2023-11-21T05:28:47;5.23;;;1.30;;
20093;SDS011;10206;48.012;10.030;2023-11-21T05:31:13;2.20;;;1.10;;
20093;SDS011;10206;48.012;10.030;2023-11-21T05:33:39;1.30;;;1.10;;
20093;SDS011;10206;48.012;10.030;2023-11-21T05:36:06;2.30;;;1.07;;
20093;SDS011;10206;48.012;10.030;2023-11-21T05:38:33;2.30;;;1.30;;
20093;SDS011;10206;48.012;10.030;2023-11-21T05:41:00;5.20;;;1.33;;
20093;SDS011;10206;48.012;10.030;2023-11-21T05:43:27;6.07;;;1.60;;
20093;SDS011;10206;48.012;10.030;2023-11-21T05:45:54;3.77;;;1.83;;
20093;SDS011;10206;48.012;10.030;2023-11-21T05:48:21;4.40;;;1.80;;
20093;SDS011;10206;48.012;10.030;2023-11-21T05:50:47;3.47;;;1.80;;
20093;SDS011;10206;48.012;10.030;2023-11-21T05:53:15;8.27;;;1.87;;
20093;SDS011;10206;48.012;10.030;2023-11-21T05:55:41;7.57;;;2.10;;
20093;SDS011;10206;48.012;10.030;2023-11-21T05:58:07;4.30;;;1.70;;
20093;SDS011;10206;48.012;10.030;2023-11-21T06:00:34;4.20;;;1.40;;
20093;SDS011;10206;48.012;10.030;2023-11-21T06:03:01;3.90;;;2.27;;
20093;SDS011;10206;48.012;10.030;2023-11-21T06:05:27;13.40;;;7.10;;
20093;SDS011;10206;48.012;10.030;2023-11-21T06:07:57;8.00;;;4.00;;
20093;SDS011;10206;48.012;10.030;2023-11-21T06:10:26;5.37;;;2.30;;
20093;SDS011;10206;48.012;10.030;2023-11-21T06:12:53;5.47;;;1.80;;
20093;SDS011;10206;48.012;10.030;2023-11-21T06:15:19;8.47;;;2.60;;
20093;SDS011;10206;48.012;10.030;2023-11-21T06:17:47;5.93;;;3.00;;
20093;SDS011;10206;48.012;10.030;2023-11-21T06:20:20;8.53;;;4.07;;
20093;SDS011;10206;48.012;10.030;2023-11-21T06:22:48;9.47;;;5.03;;
20093;SDS011;10206;48.012;10.030;2023-11-21T06:25:17;9.50;;;4.90;;
20093;SDS011;10206;48.012;10.030;2023-11-21T06:27:44;7.17;;;4.27;;
20093;SDS011;10206;48.012;10.030;2023-11-21T06:30:12;7.73;;;3.93;;
20093;SDS011;10206;48.012;10.030;2023-11-21T06:32:39;5.77;;;2.93;;
20093;SDS011;10206;48.012;10.030;2023-11-21T06:35:06;6.37;;;2.40;;
20093;SDS011;10206;48.012;10.030;2023-11-21T06:37:33;4.20;;;2.00;;
20093;SDS011;10206;48.012;10.030;2023-11-21T06:39:59;4.90;;;1.90;;
20093;SDS011;10206;48.012;10.030;2023-11-21T06:42:26;2.73;;;1.83;;
20093;SDS011;10206;48.012;10.030;2023-11-21T06:44:54;5.97;;;2.33;;
20093;SDS011;10206;48.012;10.030;2023-11-21T06:47:24;3.83;;;2.20;;
20093;SDS011;10206;48.012;10.030;2023-11-21T06:49:50;6.53;;;2.07;;
20093;SDS011;10206;48.012;10.030;2023-11-21T06:52:17;5.67;;;2.10;;
20093;SDS011;10206;48.012;10.030;2023-11-21T06:54:44;6.40;;;2.70;;
20093;SDS011;10206;48.012;10.030;2023-11-21T06:57:11;4.93;;;2.43;;
20093;SDS011;10206;48.012;10.030;2023-11-21T06:59:37;4.40;;;3.00;;
20093;SDS011;10206;48.012;10.030;2023-11-21T07:02:03;6.30;;;3.23;;
20093;SDS011;10206;48.012;10.030;2023-11-21T07:04:31;4.63;;;2.10;;
20093;SDS011;10206;48.012;10.030;2023-11-21T07:06:58;3.90;;;1.87;;
20093;SDS011;10206;48.012;10.030;2023-11-21T07:09:24;7.43;;;2.17;;
20093;SDS011;10206;48.012;10.030;2023-11-21T07:11:51;2.97;;;1.77;;
20093;SDS011;10206;48.012;10.030;2023-11-21T07:14:17;7.23;;;2.23;;
20093;SDS011;10206;48.012;10.030;2023-11-21T07:16:45;6.43;;;1.93;;
20093;SDS011;10206;48.012;10.030;2023-11-21T07:19:11;7.30;;;1.83;;
20093;SDS011;10206;48.012;10.030;2023-11-21T07:21:38;3.43;;;1.80;;
20093;SDS011;10206;48.012;10.030;2023-11-21T07:24:05;2.90;;;1.83;;
20093;SDS011;10206;48.012;10.030;2023-11-21T07:26:33;6.63;;;2.07;;
20093;SDS011;10206;48.012;10.030;2023-11-21T07:29:00;3.80;;;2.40;;
20093;SDS011;10206;48.012;10.030;2023-11-21T07:31:27;3.93;;;2.20;;
20093;SDS011;10206;48.012;10.030;2023-11-21T07:33:54;6.50;;;3.27;;
20093;SDS011;10206;48.012;10.030;2023-11-21T07:36:23;6.13;;;2.90;;
20093;SDS011;10206;48.012;10.030;2023-11-21T07:38:49;29.57;;;8.90;;
20093;SDS011;10206;48.012;10.030;2023-11-21T07:41:16;7.27;;;3.20;;
20093;SDS011;10206;48.012;10.030;2023-11-21T07:43:43;2.67;;;2.07;;
20093;SDS011;10206;48.012;10.030;2023-11-21T07:46:10;6.80;;;2.50;;
20093;SDS011;10206;48.012;10.030;2023-11-21T07:48:40;6.10;;;2.23;;
20093;SDS011;10206;48.012;10.030;2023-11-21T07:51:07;12.40;;;6.10;;
20093;SDS011;10206;48.012;10.030;2023-11-21T07:53:34;9.90;;;6.17;;
20093;SDS011;10206;48.012;10.030;2023-11-21T07:56:05;7.37;;;2.53;;
20093;SDS011;10206;48.012;10.030;2023-11-21T07:58:36;4.33;;;2.40;;
20093;SDS011;10206;48.012;10.030;2023-11-21T08:01:02;7.87;;;3.90;;
20093;SDS011;10206;48.012;10.030;2023-11-21T08:03:29;18.20;;;8.00;;
20093;SDS011;10206;48.012;10.030;2023-11-21T08:05:58;16.20;;;7.43;;
20093;SDS011;10206;48.012;10.030;2023-11-21T08:08:25;8.03;;;3.83;;
20093;SDS011;10206;48.012;10.030;2023-11-21T08:10:52;6.83;;;2.60;;
20093;SDS011;10206;48.012;10.030;2023-11-21T08:13:25;5.13;;;2.33;;
20093;SDS011;10206;48.012;10.030;2023-11-21T08:15:55;5.53;;;2.40;;
20093;SDS011;10206;48.012;10.030;2023-11-21T08:18:26;5.40;;;2.87;;
20093;SDS011;10206;48.012;10.030;2023-11-21T08:20:53;5.87;;;3.60;;
20093;SDS011;10206;48.012;10.030;2023-11-21T08:23:20;7.50;;;2.53;;
20093;SDS011;10206;48.012;10.030;2023-11-21T08:25:50;8.00;;;5.63;;
20093;SDS011;10206;48.012;10.030;2023-11-21T08:28:17;8.30;;;2.40;;
20093;SDS011;10206;48.012;10.030;2023-11-21T08:30:44;3.23;;;2.17;;
20093;SDS011;10206;48.012;10.030;2023-11-21T08:33:10;3.57;;;2.17;;
20093;SDS011;10206;48.012;10.030;2023-11-21T08:35:37;3.70;;;2.23;;
20093;SDS011;10206;48.012;10.030;2023-11-21T08:38:03;4.57;;;2.23;;
20093;SDS011;10206;48.012;10.030;2023-11-21T08:40:29;2.50;;;2.00;;
20093;SDS011;10206;48.012;10.030;2023-11-21T08:42:56;4.93;;;2.10;;
20093;SDS011;10206;48.012;10.030;2023-11-21T08:45:23;3.97;;;2.10;;
20093;SDS011;10206;48.012;10.030;2023-11-21T08:47:53;3.43;;;2.60;;
20093;SDS011;10206;48.012;10.030;2023-11-21T08:50:19;5.17;;;2.17;;
20093;SDS011;10206;48.012;10.030;2023-11-21T08:52:46;5.97;;;2.47;;
20093;SDS011;10206;48.012;10.030;2023-11-21T08:55:12;4.33;;;2.30;;
20093;SDS011;10206;48.012;10.030;2023-11-21T08:57:39;4.10;;;1.83;;
20093;SDS011;10206;48.012;10.030;2023-11-21T09:00:06;3.33;;;1.80;;
20093;SDS011;10206;48.012;10.030;2023-11-21T09:02:36;5.20;;;2.00;;
20093;SDS011;10206;48.012;10.030;2023-11-21T09:05:09;5.20;;;2.07;;
20093;SDS011;10206;48.012;10.030;2023-11-21T09:07:36;3.70;;;1.93;;
20093;SDS011;10206;48.012;10.030;2023-11-21T09:10:03;4.50;;;1.80;;
20093;SDS011;10206;48.012;10.030;2023-11-21T09:12:32;4.17;;;2.37;;
20093;SDS011;10206;48.012;10.030;2023-11-21T09:15:01;2.80;;;1.87;;
20093;SDS011;10206;48.012;10.030;2023-11-21T09:17:28;4.40;;;2.00;;
20093;SDS011;10206;48.012;10.030;2023-11-21T09:19:54;3.17;;;2.23;;
20093;SDS011;10206;48.012;10.030;2023-11-21T09:22:22;3.87;;;2.60;;
20093;SDS011;10206;48.012;10.030;2023-11-21T09:24:49;4.73;;;2.63;;
20093;SDS011;10206;48.012;10.030;2023-11-21T09:27:16;3.70;;;2.10;;
20093;SDS011;10206;48.012;10.030;2023-11-21T09:29:42;5.20;;;2.00;;
20093;SDS011;10206;48.012;10.030;2023-11-21T09:32:08;4.60;;;2.10;;
20093;SDS011;10206;48.012;10.030;2023-11-21T09:34:37;5.17;;;2.40;;
20093;SDS011;10206;48.012;10.030;2023-11-21T09:37:04;5.20;;;2.30;;
20093;SDS011;10206;48.012;10.030;2023-11-21T09:39:31;3.10;;;2.10;;
20093;SDS011;10206;48.012;10.030;2023-11-21T09:44:58;3.33;;;1.97;;
20093;SDS011;10206;48.012;10.030;2023-11-21T09:47:29;8.17;;;3.77;;
20093;SDS011;10206;48.012;10.030;2023-11-21T09:49:57;3.77;;;2.70;;
20093;SDS011;10206;48.012;10.030;2023-11-21T09:52:26;3.93;;;2.30;;
20093;SDS011;10206;48.012;10.030;2023-11-21T09:54:53;3.73;;;2.60;;
20093;SDS011;10206;48.012;10.030;2023-11-21T09:57:24;3.20;;;2.20;;
20093;SDS011;10206;48.012;10.030;2023-11-21T09:59:50;4.03;;;2.00;;
20093;SDS011;10206;48.012;10.030;2023-11-21T10:02:27;5.27;;;2.50;;
20093;SDS011;10206;48.012;10.030;2023-11-21T10:04:55;3.57;;;2.00;;
20093;SDS011;10206;48.012;10.030;2023-11-21T10:07:22;3.33;;;2.27;;
20093;SDS011;10206;48.012;10.030;2023-11-21T10:09:48;3.33;;;2.33;;
20093;SDS011;10206;48.012;10.030;2023-11-21T10:12:18;5.07;;;2.77;;
20093;SDS011;10206;48.012;10.030;2023-11-21T10:14:48;3.83;;;2.80;;
20093;SDS011;10206;48.012;10.030;2023-11-21T10:17:17;2.87;;;2.50;;
20093;SDS011;10206;48.012;10.030;2023-11-21T10:19:45;3.27;;;2.13;;
20093;SDS011;10206;48.012;10.030;2023-11-21T10:22:15;2.93;;;1.67;;
20093;SDS011;10206;48.012;10.030;2023-11-21T10:24:42;3.13;;;1.80;;
20093;SDS011;10206;48.012;10.030;2023-11-21T10:27:08;3.17;;;1.93;;
20093;SDS011;10206;48.012;10.030;2023-11-21T10:29:34;2.70;;;1.97;;
20093;SDS011;10206;48.012;10.030;2023-11-21T10:32:04;2.83;;;2.10;;
20093;SDS011;10206;48.012;10.030;2023-11-21T10:34:30;4.67;;;2.10;;
20093;SDS011;10206;48.012;10.030;2023-11-21T10:36:59;5.20;;;3.27;;
20093;SDS011;10206;48.012;10.030;2023-11-21T10:39:37;9.27;;;4.73;;
20093;SDS011;10206;48.012;10.030;2023-11-21T10:42:07;13.37;;;7.27;;
20093;SDS011;10206;48.012;10.030;2023-11-21T10:44:35;13.57;;;7.10;;
20093;SDS011;10206;48.012;10.030;2023-11-21T10:47:01;8.67;;;4.43;;
20093;SDS011;10206;48.012;10.030;2023-11-21T10:49:27;6.53;;;3.67;;
20093;SDS011;10206;48.012;10.030;2023-11-21T10:51:53;4.20;;;2.83;;
20093;SDS011;10206;48.012;10.030;2023-11-21T10:54:21;4.53;;;2.97;;
20093;SDS011;10206;48.012;10.030;2023-11-21T10:56:49;7.73;;;4.70;;
20093;SDS011;10206;48.012;10.030;2023-11-21T10:59:18;7.50;;;4.17;;
20093;SDS011;10206;48.012;10.030;2023-11-21T11:01:46;6.90;;;4.07;;
20093;SDS011;10206;48.012;10.030;2023-11-21T11:04:16;7.23;;;4.80;;
20093;SDS011;10206;48.012;10.030;2023-11-21T11:06:44;6.57;;;4.27;;
20093;SDS011;10206;48.012;10.030;2023-11-21T11:09:15;5.57;;;4.00;;
20093;SDS011;10206;48.012;10.030;2023-11-21T11:11:43;22.10;;;10.67;;
20093;SDS011;10206;48.012;10.030;2023-11-21T11:14:10;10.60;;;6.57;;
20093;SDS011;10206;48.012;10.030;2023-11-21T11:16:38;8.43;;;4.70;;
20093;SDS011;10206;48.012;10.030;2023-11-21T11:19:08;7.00;;;4.70;;
20093;SDS011;10206;48.012;10.030;2023-11-21T11:24:45;5.23;;;2.90;;
20093;SDS011;10206;48.012;10.030;2023-11-21T11:27:55;4.50;;;3.20;;
20093;SDS011;10206;48.012;10.030;2023-11-21T11:30:41;3.03;;;2.73;;
20093;SDS011;10206;48.012;10.030;2023-11-21T11:38:56;1.90;;;1.70;;
20093;SDS011;10206;48.012;10.030;2023-11-21T11:41:26;4.90;;;1.83;;
20093;SDS011;10206;48.012;10.030;2023-11-21T11:43:58;2.57;;;2.10;;
20093;SDS011;10206;48.012;10.030;2023-11-21T11:49:27;6.17;;;2.10;;
20093;SDS011;10206;48.012;10.030;2023-11-21T11:55:05;3.83;;;2.60;;
20093;SDS011;10206;48.012;10.030;2023-11-21T11:57:36;2.73;;;1.93;;
20093;SDS011;10206;48.012;10.030;2023-11-21T12:00:07;2.50;;;1.43;;
20093;SDS011;10206;48.012;10.030;2023-11-21T12:02:45;3.97;;;2.50;;
20093;SDS011;10206;48.012;10.030;2023-11-21T12:05:13;5.87;;;3.17;;
20093;SDS011;10206;48.012;10.030;2023-11-21T12:07:48;5.50;;;3.50;;
20093;SDS011;10206;48.012;10.030;2023-11-21T12:10:19;7.50;;;4.60;;
20093;SDS011;10206;48.012;10.030;2023-11-21T12:12:51;4.73;;;2.40;;
20093;SDS011;10206;48.012;10.030;2023-11-21T12:15:19;5.00;;;2.23;;
20093;SDS011;10206;48.012;10.030;2023-11-21T12:17:46;3.33;;;2.00;;
20093;SDS011;10206;48.012;10.030;2023-11-21T12:20:14;2.73;;;2.30;;
20093;SDS011;10206;48.012;10.030;2023-11-21T12:22:44;2.30;;;1.70;;
20093;SDS011;10206;48.012;10.030;2023-11-21T12:25:16;2.70;;;1.90;;
20093;SDS011;10206;48.012;10.030;2023-11-21T12:27:46;1.90;;;1.40;;
20093;SDS011;10206;48.012;10.030;2023-11-21T12:30:14;2.20;;;1.40;;
20093;SDS011;10206;48.012;10.030;2023-11-21T12:32:42;1.20;;;1.10;;
20093;SDS011;10206;48.012;10.030;2023-11-21T12:35:11;1.53;;;1.00;;
20093;SDS011;10206;48.012;10.030;2023-11-21T12:37:37;2.27;;;1.03;;
20093;SDS011;10206;48.012;10.030;2023-11-21T12:40:05;1.70;;;1.00;;
20093;SDS011;10206;48.012;10.030;2023-11-21T12:42:33;1.47;;;1.00;;
20093;SDS011;10206;48.012;10.030;2023-11-21T12:45:09;1.20;;;1.10;;
20093;SDS011;10206;48.012;10.030;2023-11-21T12:47:46;2.23;;;1.20;;
20093;SDS011;10206;48.012;10.030;2023-11-21T12:50:19;2.40;;;1.20;;
20093;SDS011;10206;48.012;10.030;2023-11-21T12:52:51;1.87;;;1.17;;
20093;SDS011;10206;48.012;10.030;2023-11-21T12:55:19;1.47;;;1.00;;
20093;SDS011;10206;48.012;10.030;2023-11-21T12:57:52;1.57;;;1.20;;
20093;SDS011;10206;48.012;10.030;2023-11-21T13:00:20;1.90;;;1.50;;
20093;SDS011;10206;48.012;10.030;2023-11-21T13:02:54;2.33;;;1.20;;
20093;SDS011;10206;48.012;10.030;2023-11-21T13:05:25;2.23;;;1.10;;
20093;SDS011;10206;48.012;10.030;2023-11-21T13:07:52;1.80;;;1.27;;
20093;SDS011;10206;48.012;10.030;2023-11-21T13:10:20;1.20;;;1.10;;
20093;SDS011;10206;48.012;10.030;2023-11-21T13:12:51;1.70;;;1.50;;
20093;SDS011;10206;48.012;10.030;2023-11-21T13:15:18;2.67;;;1.30;;
20093;SDS011;10206;48.012;10.030;2023-11-21T13:17:45;2.13;;;1.40;;
20093;SDS011;10206;48.012;10.030;2023-11-21T13:20:12;2.63;;;1.70;;
20093;SDS011;10206;48.012;10.030;2023-11-21T13:25:14;2.27;;;1.40;;
20093;SDS011;10206;48.012;10.030;2023-11-21T13:27:43;3.47;;;1.43;;
20093;SDS011;10206;48.012;10.030;2023-11-21T13:30:10;1.53;;;1.00;;
20093;SDS011;10206;48.012;10.030;2023-11-21T13:32:48;1.47;;;1.07;;
20093;SDS011;10206;48.012;10.030;2023-11-21T13:35:17;1.90;;;0.90;;
20093;SDS011;10206;48.012;10.030;2023-11-21T13:37:49;1.10;;;1.00;;
20093;SDS011;10206;48.012;10.030;2023-11-21T13:40:21;0.93;;;0.80;;
20093;SDS011;10206;48.012;10.030;2023-11-21T13:42:52;1.03;;;0.70;;
20093;SDS011;10206;48.012;10.030;2023-11-21T13:45:21;0.93;;;0.70;;
20093;SDS011;10206;48.012;10.030;2023-11-21T13:47:48;0.90;;;0.80;;
20093;SDS011;10206;48.012;10.030;2023-11-21T13:50:22;3.17;;;1.80;;
20093;SDS011;10206;48.012;10.030;2023-11-21T13:52:54;4.70;;;2.20;;
20093;SDS011;10206;48.012;10.030;2023-11-21T13:55:20;4.37;;;1.67;;
20093;SDS011;10206;48.012;10.030;2023-11-21T13:57:50;3.43;;;1.90;;
20093;SDS011;10206;48.012;10.030;2023-11-21T14:00:17;4.87;;;3.00;;
20093;SDS011;10206;48.012;10.030;2023-11-21T14:03:08;8.50;;;4.20;;
20093;SDS011;10206;48.012;10.030;2023-11-21T14:05:42;4.47;;;2.40;;
20093;SDS011;10206;48.012;10.030;2023-11-21T14:08:09;3.13;;;2.40;;
20093;SDS011;10206;48.012;10.030;2023-11-21T14:10:37;1.83;;;1.40;;
20093;SDS011;10206;48.012;10.030;2023-11-21T14:13:08;2.60;;;2.00;;
20093;SDS011;10206;48.012;10.030;2023-11-21T14:15:36;2.10;;;1.07;;
20093;SDS011;10206;48.012;10.030;2023-11-21T14:18:06;1.83;;;1.70;;
20093;SDS011;10206;48.012;10.030;2023-11-21T14:20:38;3.20;;;1.80;;
20093;SDS011;10206;48.012;10.030;2023-11-21T14:23:07;3.77;;;1.67;;
20093;SDS011;10206;48.012;10.030;2023-11-21T14:25:35;1.40;;;1.30;;
20093;SDS011;10206;48.012;10.030;2023-11-21T14:28:02;2.17;;;1.60;;
20093;SDS011;10206;48.012;10.030;2023-11-21T14:30:31;3.40;;;2.63;;
20093;SDS011;10206;48.012;10.030;2023-11-21T14:33:00;2.37;;;1.80;;
20093;SDS011;10206;48.012;10.030;2023-11-21T14:35:29;1.27;;;1.00;;
20093;SDS011;10206;48.012;10.030;2023-11-21T14:37:57;2.00;;;1.67;;
20093;SDS011;10206;48.012;10.030;2023-11-21T14:40:24;1.70;;;1.50;;
20093;SDS011;10206;48.012;10.030;2023-11-21T14:42:51;1.93;;;1.37;;
20093;SDS011;10206;48.012;10.030;2023-11-21T14:45:19;1.00;;;0.90;;
20093;SDS011;10206;48.012;10.030;2023-11-21T14:47:48;2.47;;;1.40;;
20093;SDS011;10206;48.012;10.030;2023-11-21T14:50:25;2.57;;;1.40;;
20093;SDS011;10206;48.012;10.030;2023-11-21T14:53:06;1.20;;;1.10;;
20093;SDS011;10206;48.012;10.030;2023-11-21T14:55:34;1.80;;;1.20;;
20093;SDS011;10206;48.012;10.030;2023-11-21T14:58:15;2.13;;;1.07;;